createdAt,value
2023-12-11T00:01:00.118Z,-0.25
2023-12-11T00:03:40.919Z,-0.23
2023-12-11T00:06:09.671Z,-0.24
2023-12-11T00:08:37.887Z,-0.25
2023-12-11T00:11:06.938Z,-0.27
2023-12-11T00:13:35.275Z,-0.30
2023-12-11T00:16:03.843Z,-0.31
2023-12-11T00:18:32.270Z,-0.30
2023-12-11T00:21:01.791Z,-0.29
2023-12-11T00:23:30.258Z,-0.31
2023-12-11T00:25:59.092Z,-0.35
2023-12-11T00:28:27.354Z,-0.39
2023-12-11T00:30:55.617Z,-0.43
2023-12-11T00:33:24.140Z,-0.43
2023-12-11T00:35:52.720Z,-0.44
2023-12-11T00:38:21.075Z,-0.43
2023-12-11T00:40:49.582Z,-0.44
2023-12-11T00:43:20.073Z,-0.45
2023-12-11T00:45:48.556Z,-0.42
2023-12-11T00:48:17.009Z,-0.37
2023-12-11T00:50:45.789Z,-0.31
2023-12-11T00:53:14.238Z,-0.24
2023-12-11T00:55:42.755Z,-0.25
2023-12-11T00:58:11.154Z,-0.24
2023-12-11T01:00:39.332Z,-0.25
2023-12-11T01:03:07.443Z,-0.22
2023-12-11T01:05:35.779Z,-0.16
2023-12-11T01:08:04.251Z,-0.12
2023-12-11T01:10:32.605Z,-0.14
2023-12-11T01:13:01.196Z,-0.19
2023-12-11T01:15:29.663Z,-0.23
2023-12-11T01:17:58.153Z,-0.25
2023-12-11T01:20:26.697Z,-0.27
2023-12-11T01:22:55.078Z,-0.31
2023-12-11T01:25:23.494Z,-0.35
2023-12-11T01:27:52.171Z,-0.34
2023-12-11T01:30:21.022Z,-0.31
2023-12-11T01:32:49.613Z,-0.31
2023-12-11T01:35:18.513Z,-0.34
2023-12-11T01:37:46.969Z,-0.36
2023-12-11T01:40:15.486Z,-0.38
2023-12-11T01:42:44.032Z,-0.41
2023-12-11T01:45:12.286Z,-0.42
2023-12-11T01:47:41.314Z,-0.40
2023-12-11T01:50:09.962Z,-0.37
2023-12-11T01:52:39.176Z,-0.31
2023-12-11T01:55:08.388Z,-0.31
2023-12-11T01:57:37.116Z,-0.37
2023-12-11T02:00:07.230Z,-0.39
2023-12-11T02:02:36.584Z,-0.42
2023-12-11T02:05:05.134Z,-0.48
2023-12-11T02:07:33.469Z,-0.53
2023-12-11T02:10:02.077Z,-0.57
2023-12-11T02:12:30.737Z,-0.59
2023-12-11T02:14:59.375Z,-0.59
2023-12-11T02:17:27.942Z,-0.63
2023-12-11T02:19:56.776Z,-0.64
2023-12-11T02:22:26.288Z,-0.66
2023-12-11T02:25:01.601Z,-0.64
2023-12-11T02:27:31.234Z,-0.64
2023-12-11T02:30:00.273Z,-0.60
2023-12-11T02:32:28.886Z,-0.56
2023-12-11T02:34:57.193Z,-0.55
2023-12-11T02:37:25.576Z,-0.55
2023-12-11T02:39:54.018Z,-0.54
2023-12-11T02:42:22.241Z,-0.57
2023-12-11T02:44:50.700Z,-0.55
2023-12-11T02:47:18.945Z,-0.55
2023-12-11T02:49:47.318Z,-0.52
2023-12-11T02:52:15.792Z,-0.55
2023-12-11T02:54:47.159Z,-0.53
2023-12-11T02:57:15.429Z,-0.52
2023-12-11T02:59:44.199Z,-0.54
2023-12-11T03:02:12.660Z,-0.53
2023-12-11T03:04:41.160Z,-0.51
2023-12-11T03:07:09.669Z,-0.51
2023-12-11T03:09:38.153Z,-0.52
2023-12-11T03:12:06.906Z,-0.49
2023-12-11T03:14:35.387Z,-0.49
2023-12-11T03:17:03.948Z,-0.50
2023-12-11T03:19:34.803Z,-0.49
2023-12-11T03:22:03.395Z,-0.48
2023-12-11T03:24:31.844Z,-0.52
2023-12-11T03:27:00.077Z,-0.56
2023-12-11T03:29:28.304Z,-0.56
2023-12-11T03:31:56.693Z,-0.54
2023-12-11T03:34:25.273Z,-0.54
2023-12-11T03:36:53.780Z,-0.55
2023-12-11T03:39:22.155Z,-0.58
2023-12-11T03:41:50.525Z,-0.57
2023-12-11T03:44:18.906Z,-0.52
2023-12-11T03:46:47.400Z,-0.53
2023-12-11T03:49:18.255Z,-0.55
2023-12-11T03:51:47.740Z,-0.53
2023-12-11T03:54:16.196Z,-0.49
2023-12-11T03:56:44.472Z,-0.52
2023-12-11T03:59:12.992Z,-0.52
2023-12-11T04:01:41.766Z,-0.51
2023-12-11T04:04:10.706Z,-0.55
2023-12-11T04:06:39.282Z,-0.51
2023-12-11T04:09:09.159Z,-0.46
2023-12-11T04:11:37.914Z,-0.39
2023-12-11T04:14:06.142Z,-0.30
2023-12-11T04:16:34.678Z,-0.24
2023-12-11T04:19:04.284Z,-0.17
2023-12-11T04:21:32.926Z,-0.11
2023-12-11T04:24:01.520Z,-0.06
2023-12-11T04:26:30.193Z,-0.04
2023-12-11T04:28:58.565Z,-0.05
2023-12-11T04:31:27.293Z,-0.09
2023-12-11T04:33:55.745Z,-0.13
2023-12-11T04:36:24.457Z,-0.14
2023-12-11T04:38:52.952Z,-0.13
2023-12-11T04:41:21.656Z,-0.15
2023-12-11T04:43:50.351Z,-0.17
2023-12-11T04:46:18.936Z,-0.23
2023-12-11T04:48:47.790Z,-0.29
2023-12-11T04:51:16.400Z,-0.32
2023-12-11T04:53:44.952Z,-0.28
2023-12-11T04:56:13.431Z,-0.23
2023-12-11T04:58:41.796Z,-0.19
2023-12-11T05:01:10.485Z,-0.21
2023-12-11T05:03:39.032Z,-0.17
2023-12-11T05:06:08.055Z,-0.10
2023-12-11T05:08:36.326Z,-0.04
2023-12-11T05:11:04.994Z,0.03
2023-12-11T05:13:33.411Z,0.06
2023-12-11T05:16:02.474Z,0.01
2023-12-11T05:18:30.710Z,-0.06
2023-12-11T05:20:59.297Z,-0.08
2023-12-11T05:23:27.622Z,-0.14
2023-12-11T05:25:56.070Z,-0.22
2023-12-11T05:28:24.277Z,-0.28
2023-12-11T05:30:52.801Z,-0.30
2023-12-11T05:33:21.082Z,-0.29
2023-12-11T05:35:49.380Z,-0.25
2023-12-11T05:38:17.535Z,-0.20
2023-12-11T05:40:46.902Z,-0.15
2023-12-11T05:43:15.370Z,-0.11
2023-12-11T05:45:43.728Z,-0.06
2023-12-11T05:48:12.122Z,-0.03
2023-12-11T05:50:41.436Z,-0.05
2023-12-11T05:53:10.396Z,-0.04
2023-12-11T05:55:38.738Z,-0.00
2023-12-11T05:58:07.282Z,0.05
2023-12-11T06:00:35.648Z,0.08
2023-12-11T06:03:03.990Z,0.13
2023-12-11T06:05:32.909Z,0.19
2023-12-11T06:08:03.292Z,0.24
2023-12-11T06:10:32.333Z,0.27
2023-12-11T06:13:00.716Z,0.30
2023-12-11T06:15:29.158Z,0.31
2023-12-11T06:17:57.985Z,0.31
2023-12-11T06:20:26.265Z,0.30
2023-12-11T06:22:54.671Z,0.29
2023-12-11T06:25:23.117Z,0.28
2023-12-11T06:27:53.172Z,0.26
2023-12-11T06:30:21.946Z,0.18
2023-12-11T06:32:50.599Z,0.16
2023-12-11T06:35:19.108Z,0.18
2023-12-11T06:37:47.575Z,0.21
2023-12-11T06:40:16.183Z,0.24
2023-12-11T06:42:44.663Z,0.29
2023-12-11T06:45:13.988Z,0.34
2023-12-11T06:47:42.818Z,0.40
2023-12-11T06:50:11.260Z,0.41
2023-12-11T06:52:40.245Z,0.38
2023-12-11T06:55:09.168Z,0.29
2023-12-11T06:57:37.913Z,0.21
2023-12-11T07:00:08.442Z,0.20
2023-12-11T07:02:37.475Z,0.13
2023-12-11T07:05:08.511Z,0.13
2023-12-11T07:07:37.623Z,0.20
2023-12-11T07:10:07.047Z,0.27
2023-12-11T07:12:38.395Z,0.31
2023-12-11T07:15:07.403Z,0.32
2023-12-11T07:17:36.783Z,0.37
2023-12-11T07:20:07.043Z,0.45
2023-12-11T07:22:36.132Z,0.52
2023-12-11T07:25:06.493Z,0.63
2023-12-11T07:27:35.479Z,0.71
2023-12-11T07:30:04.322Z,0.78
2023-12-11T07:32:32.633Z,0.88
2023-12-11T07:35:02.042Z,0.99
2023-12-11T07:37:31.172Z,0.98
2023-12-11T07:39:59.631Z,0.94
2023-12-11T07:42:27.929Z,0.90
2023-12-11T07:44:56.223Z,0.87
2023-12-11T07:47:24.569Z,0.83
2023-12-11T07:49:52.979Z,0.79
2023-12-11T07:52:21.342Z,0.82
2023-12-11T07:54:49.950Z,0.95
2023-12-11T07:57:18.316Z,0.99
2023-12-11T07:59:46.589Z,1.05
2023-12-11T08:02:15.045Z,1.25
2023-12-11T08:04:43.837Z,1.43
2023-12-11T08:07:15.142Z,1.60
2023-12-11T08:09:43.922Z,1.72
2023-12-11T08:12:12.233Z,1.81
2023-12-11T08:14:40.742Z,1.88
2023-12-11T08:17:12.087Z,1.85
2023-12-11T08:19:40.613Z,1.75
2023-12-11T08:22:09.076Z,1.68
2023-12-11T08:24:38.143Z,1.68
2023-12-11T08:27:08.917Z,1.69
2023-12-11T08:29:38.412Z,1.69
2023-12-11T08:32:10.619Z,1.72
2023-12-11T08:34:39.569Z,1.89
2023-12-11T08:37:09.968Z,2.08
2023-12-11T08:39:40.137Z,2.25
2023-12-11T08:42:08.687Z,2.43
2023-12-11T08:44:37.178Z,2.40
2023-12-11T08:47:05.670Z,2.33
2023-12-11T08:49:34.267Z,2.26
2023-12-11T08:52:03.654Z,2.21
2023-12-11T08:54:31.876Z,2.12
2023-12-11T08:57:00.095Z,2.20
2023-12-11T08:59:28.441Z,2.36
2023-12-11T09:01:57.100Z,2.30
2023-12-11T09:04:25.917Z,2.24
2023-12-11T09:06:54.352Z,2.42
2023-12-11T09:09:22.675Z,2.65
2023-12-11T09:11:51.125Z,2.77
2023-12-11T09:14:19.542Z,2.78
2023-12-11T09:16:48.727Z,2.70
2023-12-11T09:19:17.571Z,2.52
2023-12-11T09:21:46.126Z,2.52
2023-12-11T09:24:14.549Z,2.51
2023-12-11T09:26:42.854Z,2.51
2023-12-11T09:29:11.942Z,2.51
2023-12-11T09:31:40.229Z,2.56
2023-12-11T09:34:08.726Z,2.67
2023-12-11T09:36:37.219Z,2.84
2023-12-11T09:39:05.994Z,2.88
2023-12-11T09:41:36.007Z,2.92
2023-12-11T09:44:05.280Z,2.93
2023-12-11T09:46:57.848Z,3.04
2023-12-11T09:49:29.412Z,3.16
2023-12-11T09:51:59.356Z,3.24
2023-12-11T09:54:28.382Z,3.19
2023-12-11T09:56:58.856Z,3.07
2023-12-11T09:59:29.253Z,3.11
2023-12-11T10:01:58.789Z,3.20
2023-12-11T10:04:27.457Z,3.09
2023-12-11T10:06:56.313Z,3.17
2023-12-11T10:09:34.692Z,3.10
2023-12-11T10:12:07.548Z,3.12
2023-12-11T10:14:41.662Z,3.08
2023-12-11T10:17:17.860Z,3.02
2023-12-11T10:19:46.524Z,3.01
2023-12-11T10:22:32.478Z,2.91
2023-12-11T10:25:00.920Z,2.96
2023-12-11T10:27:30.095Z,3.04
2023-12-11T10:30:09.700Z,3.01
2023-12-11T10:32:39.413Z,3.07
2023-12-11T10:35:10.057Z,3.19
2023-12-11T10:37:38.576Z,3.33
2023-12-11T10:40:09.277Z,3.45
2023-12-11T10:42:38.258Z,3.59
2023-12-11T10:45:08.560Z,3.72
2023-12-11T10:47:39.191Z,3.81
2023-12-11T10:50:08.754Z,3.83
2023-12-11T10:52:40.911Z,3.77
2023-12-11T10:55:09.709Z,3.88
2023-12-11T10:57:38.846Z,4.02
2023-12-11T11:00:09.226Z,4.10
2023-12-11T11:02:38.577Z,4.18
2023-12-11T11:05:07.537Z,4.28
2023-12-11T11:07:46.480Z,4.27
2023-12-11T11:10:23.798Z,4.07
2023-12-11T11:13:21.199Z,3.89
2023-12-11T11:15:54.710Z,3.44
2023-12-11T11:18:23.492Z,3.25
2023-12-11T11:21:13.158Z,3.21
2023-12-11T11:23:47.387Z,3.34
2023-12-11T11:26:36.002Z,3.33
2023-12-11T11:29:05.516Z,3.38
2023-12-11T11:31:51.171Z,3.45
2023-12-11T11:34:49.102Z,3.47
2023-12-11T11:37:38.164Z,3.45
2023-12-11T11:40:07.757Z,3.32
2023-12-11T11:42:37.403Z,3.26
2023-12-11T11:45:11.415Z,3.23
2023-12-11T11:47:39.789Z,3.20
2023-12-11T11:50:14.701Z,3.20
2023-12-11T11:52:47.780Z,3.20
2023-12-11T11:55:25.438Z,3.25
2023-12-11T11:57:55.393Z,3.28
2023-12-11T12:00:32.831Z,3.30
2023-12-11T12:03:06.499Z,3.24
2023-12-11T12:05:59.334Z,3.16
2023-12-11T12:08:27.987Z,3.06
2023-12-11T12:10:58.560Z,2.93
2023-12-11T12:13:29.081Z,2.78
2023-12-11T12:15:57.450Z,2.81
2023-12-11T12:18:25.861Z,2.89
2023-12-11T12:21:12.591Z,2.92
2023-12-11T12:23:41.231Z,2.91
2023-12-11T12:26:11.167Z,2.89
2023-12-11T12:28:39.788Z,2.86
2023-12-11T12:31:08.525Z,2.81
2023-12-11T12:33:37.624Z,2.79
2023-12-11T12:36:06.961Z,2.74
2023-12-11T12:38:35.318Z,2.66
2023-12-11T12:41:04.431Z,2.53
2023-12-11T12:43:33.698Z,2.48
2023-12-11T12:46:02.193Z,2.41
2023-12-11T12:48:30.751Z,2.37
2023-12-11T12:51:12.737Z,2.36
2023-12-11T12:53:48.261Z,2.37
2023-12-11T12:56:20.970Z,2.34
2023-12-11T12:58:50.099Z,2.33
2023-12-11T13:01:20.566Z,2.33
2023-12-11T13:03:49.140Z,2.32
2023-12-11T13:06:27.609Z,2.38
2023-12-11T13:08:56.050Z,2.39
2023-12-11T13:11:39.692Z,2.36
2023-12-11T13:14:09.954Z,2.30
2023-12-11T13:16:38.635Z,2.25
2023-12-11T13:19:07.411Z,2.22
2023-12-11T13:21:36.435Z,2.25
2023-12-11T13:24:08.346Z,2.27
2023-12-11T13:26:37.264Z,2.29
2023-12-11T13:29:05.720Z,2.28
2023-12-11T13:31:34.075Z,2.29
2023-12-11T13:34:02.312Z,2.30
2023-12-11T13:36:30.625Z,2.25
2023-12-11T13:38:59.027Z,2.20
2023-12-11T13:41:27.568Z,2.15
2023-12-11T13:43:55.948Z,2.09
2023-12-11T13:46:24.505Z,2.02
2023-12-11T13:48:53.068Z,1.99
2023-12-11T13:51:21.763Z,1.98
2023-12-11T13:53:51.526Z,1.95
2023-12-11T13:56:21.144Z,1.96
2023-12-11T13:58:50.258Z,1.95
2023-12-11T14:01:19.187Z,1.92
2023-12-11T14:03:47.999Z,1.89
2023-12-11T14:06:19.230Z,1.85
2023-12-11T14:08:47.605Z,1.82
2023-12-11T14:11:16.123Z,1.79
2023-12-11T14:13:44.591Z,1.73
2023-12-11T14:16:13.027Z,1.65
2023-12-11T14:18:42.938Z,1.58
2023-12-11T14:21:14.422Z,1.51
2023-12-11T14:23:43.144Z,1.44
2023-12-11T14:26:11.698Z,1.36
2023-12-11T14:28:39.921Z,1.33
2023-12-11T14:31:12.329Z,1.29
2023-12-11T14:33:41.121Z,1.27
2023-12-11T14:36:19.001Z,1.25
2023-12-11T14:38:51.457Z,1.23
2023-12-11T14:41:19.893Z,1.18
2023-12-11T14:43:48.223Z,1.14
2023-12-11T14:46:16.555Z,1.12
2023-12-11T14:48:46.702Z,1.11
2023-12-11T14:51:15.329Z,1.09
2023-12-11T14:53:44.214Z,1.07
2023-12-11T14:56:13.120Z,1.07
2023-12-11T14:58:41.595Z,1.08
2023-12-11T15:01:10.051Z,1.09
2023-12-11T15:03:38.465Z,1.09
2023-12-11T15:06:07.559Z,1.10
2023-12-11T15:08:36.134Z,1.11
2023-12-11T15:11:04.777Z,1.11
2023-12-11T15:13:33.489Z,1.09
2023-12-11T15:16:02.104Z,1.12
2023-12-11T15:18:30.285Z,1.15
2023-12-11T15:20:58.606Z,1.19
2023-12-11T15:23:26.913Z,1.24
2023-12-11T15:25:55.230Z,1.31
2023-12-11T15:28:23.491Z,1.37
2023-12-11T15:30:52.035Z,1.41
2023-12-11T15:33:20.607Z,1.46
2023-12-11T15:35:49.330Z,1.50
2023-12-11T15:38:17.779Z,1.48
2023-12-11T15:40:46.071Z,1.44
2023-12-11T15:43:14.550Z,1.40
2023-12-11T15:45:43.040Z,1.32
2023-12-11T15:48:23.608Z,1.24
2023-12-11T15:50:53.126Z,1.18
2023-12-11T15:53:21.502Z,1.11
2023-12-11T15:55:49.904Z,1.04
2023-12-11T15:58:18.713Z,0.98
2023-12-11T16:00:47.003Z,0.94
2023-12-11T16:03:15.843Z,0.90
2023-12-11T16:05:44.823Z,0.86
2023-12-11T16:08:13.198Z,0.84
2023-12-11T16:10:41.422Z,0.80
2023-12-11T16:13:09.981Z,0.78
2023-12-11T16:15:38.395Z,0.79
2023-12-11T16:18:06.806Z,0.83
2023-12-11T16:20:35.180Z,0.88
2023-12-11T16:23:03.350Z,0.96
2023-12-11T16:25:31.994Z,1.01
2023-12-11T16:28:00.310Z,1.03
2023-12-11T16:30:28.584Z,1.04
2023-12-11T16:32:56.985Z,1.07
2023-12-11T16:35:25.543Z,1.10
2023-12-11T16:37:53.940Z,1.13
2023-12-11T16:40:22.109Z,1.16
2023-12-11T16:42:50.346Z,1.20
2023-12-11T16:45:19.025Z,1.24
2023-12-11T16:47:51.253Z,1.27
2023-12-11T16:50:19.944Z,1.29
2023-12-11T16:52:48.356Z,1.30
2023-12-11T16:55:18.225Z,1.27
2023-12-11T16:57:47.597Z,1.24
2023-12-11T17:00:16.091Z,1.22
2023-12-11T17:02:44.790Z,1.19
2023-12-11T17:05:13.285Z,1.21
2023-12-11T17:07:41.939Z,1.23
2023-12-11T17:10:10.630Z,1.22
2023-12-11T17:12:39.009Z,1.19
2023-12-11T17:15:09.277Z,1.18
2023-12-11T17:17:38.212Z,1.17
2023-12-11T17:20:07.946Z,1.16
2023-12-11T17:22:36.719Z,1.15
2023-12-11T17:25:05.582Z,1.12
2023-12-11T17:27:34.531Z,1.11
2023-12-11T17:30:04.351Z,1.15
2023-12-11T17:32:33.459Z,1.18
2023-12-11T17:35:04.557Z,1.15
2023-12-11T17:37:33.122Z,1.16
2023-12-11T17:40:01.702Z,1.16
2023-12-11T17:42:32.166Z,1.18
2023-12-11T17:45:02.203Z,1.26
2023-12-11T17:47:30.648Z,1.34
2023-12-11T17:49:59.292Z,1.38
2023-12-11T17:52:27.753Z,1.43
2023-12-11T17:54:56.286Z,1.46
2023-12-11T17:57:25.676Z,1.47
2023-12-11T17:59:54.959Z,1.45
2023-12-11T18:02:23.164Z,1.44
2023-12-11T18:04:51.856Z,1.41
2023-12-11T18:07:24.180Z,1.41
2023-12-11T18:09:52.997Z,1.39
2023-12-11T18:12:21.093Z,1.29
2023-12-11T18:14:49.540Z,1.19
2023-12-11T18:17:18.307Z,1.10
2023-12-11T18:19:47.894Z,1.02
2023-12-11T18:22:16.920Z,1.00
2023-12-11T18:24:45.366Z,0.98
2023-12-11T18:27:13.409Z,0.94
2023-12-11T18:29:42.106Z,0.88
2023-12-11T18:32:10.411Z,0.82
2023-12-11T18:34:47.089Z,0.75
2023-12-11T18:37:20.590Z,0.68
2023-12-11T18:39:48.856Z,0.68
2023-12-11T18:42:17.095Z,0.69
2023-12-11T18:44:45.173Z,0.68
2023-12-11T18:47:13.333Z,0.69
2023-12-11T18:49:45.982Z,0.72
2023-12-11T18:52:17.065Z,0.76
2023-12-11T18:54:45.704Z,0.81
2023-12-11T18:57:15.765Z,0.86
2023-12-11T18:59:44.647Z,0.87
2023-12-11T19:02:13.739Z,0.86
2023-12-11T19:04:42.312Z,0.87
2023-12-11T19:07:10.830Z,0.82
2023-12-11T19:09:39.468Z,0.79
2023-12-11T19:12:07.918Z,0.81
2023-12-11T19:14:36.257Z,0.84
2023-12-11T19:17:04.639Z,0.88
2023-12-11T19:19:32.996Z,0.93
2023-12-11T19:22:01.333Z,0.95
2023-12-11T19:24:30.180Z,0.98
2023-12-11T19:26:58.927Z,1.03
2023-12-11T19:29:27.357Z,1.09
2023-12-11T19:31:55.731Z,1.13
2023-12-11T19:34:24.215Z,1.17
2023-12-11T19:36:52.521Z,1.16
2023-12-11T19:39:20.933Z,1.15
2023-12-11T19:41:49.373Z,1.16
2023-12-11T19:44:18.554Z,1.14
2023-12-11T19:46:47.210Z,1.11
2023-12-11T19:49:15.958Z,1.09
2023-12-11T19:51:44.698Z,1.13
2023-12-11T19:54:13.122Z,1.16
2023-12-11T19:56:43.791Z,1.18
2023-12-11T19:59:13.129Z,1.16
2023-12-11T20:01:41.486Z,1.19
2023-12-11T20:04:09.834Z,1.22
2023-12-11T20:06:38.961Z,1.27
2023-12-11T20:09:07.238Z,1.27
2023-12-11T20:11:35.674Z,1.25
2023-12-11T20:14:04.182Z,1.28
2023-12-11T20:16:32.445Z,1.30
2023-12-11T20:19:00.719Z,1.35
2023-12-11T20:21:29.257Z,1.39
2023-12-11T20:23:58.233Z,1.43
2023-12-11T20:26:26.599Z,1.49
2023-12-11T20:28:54.688Z,1.53
2023-12-11T20:31:23.175Z,1.52
2023-12-11T20:33:51.548Z,1.54
2023-12-11T20:36:25.019Z,1.54
2023-12-11T20:38:54.206Z,1.53
2023-12-11T20:41:26.934Z,1.52
2023-12-11T20:43:57.027Z,1.51
2023-12-11T20:46:27.817Z,1.51
2023-12-11T20:48:56.886Z,1.49
2023-12-11T20:51:25.877Z,1.47
2023-12-11T20:53:54.656Z,1.43
2023-12-11T20:56:24.082Z,1.42
2023-12-11T20:58:54.697Z,1.42
2023-12-11T21:01:30.724Z,1.43
2023-12-11T21:04:02.017Z,1.42
2023-12-11T21:06:31.136Z,1.39
2023-12-11T21:09:03.611Z,1.40
2023-12-11T21:11:32.043Z,1.37
2023-12-11T21:14:00.498Z,1.40
2023-12-11T21:16:29.027Z,1.40
2023-12-11T21:18:57.935Z,1.37
2023-12-11T21:21:28.809Z,1.32
2023-12-11T21:23:56.894Z,1.34
2023-12-11T21:26:26.941Z,1.33
2023-12-11T21:28:55.400Z,1.32
2023-12-11T21:31:30.667Z,1.28
2023-12-11T21:34:00.101Z,1.25
2023-12-11T21:36:32.518Z,1.23
2023-12-11T21:39:01.688Z,1.21
2023-12-11T21:41:30.211Z,1.20
2023-12-11T21:44:00.180Z,1.20
2023-12-11T21:46:29.622Z,1.18
2023-12-11T21:49:01.368Z,1.20
2023-12-11T21:51:31.344Z,1.24
2023-12-11T21:54:00.008Z,1.22
2023-12-11T21:56:28.391Z,1.23
2023-12-11T21:58:56.706Z,1.28
2023-12-11T22:01:25.335Z,1.32
2023-12-11T22:03:53.450Z,1.32
2023-12-11T22:06:22.759Z,1.32
2023-12-11T22:08:51.067Z,1.31
2023-12-11T22:11:19.598Z,1.30
2023-12-11T22:13:49.690Z,1.27
2023-12-11T22:16:18.504Z,1.27
2023-12-11T22:18:48.791Z,1.27
2023-12-11T22:21:24.254Z,1.30
2023-12-11T22:23:54.057Z,1.31
2023-12-11T22:26:23.311Z,1.36
2023-12-11T22:28:51.800Z,1.38
2023-12-11T22:31:30.731Z,1.41
2023-12-11T22:33:59.455Z,1.46
2023-12-11T22:36:27.832Z,1.52
2023-12-11T22:38:56.240Z,1.54
2023-12-11T22:41:28.748Z,1.55
2023-12-11T22:43:57.375Z,1.52
2023-12-11T22:46:26.751Z,1.44
2023-12-11T22:48:55.906Z,1.41
2023-12-11T22:51:24.469Z,1.38
2023-12-11T22:53:53.054Z,1.32
2023-12-11T22:56:21.528Z,1.26
2023-12-11T22:58:49.893Z,1.25
2023-12-11T23:01:18.363Z,1.24
2023-12-11T23:03:46.572Z,1.25
2023-12-11T23:06:14.952Z,1.27
2023-12-11T23:08:43.269Z,1.30
2023-12-11T23:11:11.655Z,1.32
2023-12-11T23:13:40.064Z,1.36
2023-12-11T23:16:09.127Z,1.31
2023-12-11T23:18:37.644Z,1.27
2023-12-11T23:21:06.123Z,1.23
2023-12-11T23:23:34.529Z,1.24
2023-12-11T23:26:05.265Z,1.24
2023-12-11T23:28:34.028Z,1.19
2023-12-11T23:31:02.688Z,1.16
2023-12-11T23:33:31.157Z,1.14
2023-12-11T23:35:59.546Z,1.07
2023-12-11T23:38:30.058Z,1.08
2023-12-11T23:40:59.308Z,1.12
2023-12-11T23:43:27.832Z,1.16
2023-12-11T23:45:56.181Z,1.20
2023-12-11T23:48:24.863Z,1.23
2023-12-11T23:50:53.118Z,1.25
2023-12-11T23:53:21.462Z,1.28
2023-12-11T23:55:49.654Z,1.26
2023-12-11T23:58:17.784Z,1.28
